Goodwill — DSOW6 — position and weather

sailwx.info

Track history (hours):
 
Tides and Currents Weather Stations Pressure Air Temp Water Temp Dewpoint Dewpoint Depression Visibility Wind Speed Wind Dir Waves Ship Positions

Goodwill

Last reported at 2015-Jan-27 06:32 UTC. Time now 2015-Mar-06 09:02 UTC.
Position N 48°33' W 126°15'.
Warning: this ship's position is 38 days out of date.

Length 269 m; draft 16.4 m.

Type: Cargo ship. MMSI: 440541000.

Date/timePositionNaut miles runAvg speedWind from/ knotsBaromVisibWave heightAir tempDewpointWater temp
2015-Jan-27 06:32N 48°33' W 126°15'9 9.1
2015-Jan-27 05:33N 48°32' W 126°01'9 9.4
2015-Jan-27 04:33N 48°32' W 125°47'10 9.8
2015-Jan-27 03:34N 48°32' W 125°32'10 9.6
2015-Jan-27 02:33N 48°32' W 125°18'10 9.9
2015-Jan-27 01:31N 48°31' W 125°02'1010.6
2015-Jan-27 00:33N 48°31' W 124°47'1111.0
2015-Jan-26 23:34N 48°27' W 124°31'1212.1
2015-Jan-26 22:33N 48°22' W 124°14'1212.1
2015-Jan-26 21:33N 48°18' W 123°57'1212.2
2015-Jan-26 20:33N 48°15' W 123°39'1010.2
2015-Jan-26 19:33N 48°21' W 123°26'1010.4
2015-Jan-26 18:34N 48°26' W 123°12'1211.9
2015-Jan-26 17:34N 48°38' W 123°14'8 8.4
2015-Jan-26 16:33N 48°45' W 123°08'8 8.2
2015-Jan-26 15:34N 48°52' W 123°02'10 9.6
2015-Jan-26 14:33N 49°00' W 123°10'1 0.6
2015-Jan-26 13:31N 49°01' W 123°09'0 0.0
2015-Jan-26 12:31N 49°01' W 123°09'0 0.0
2015-Jan-26 11:31N 49°01' W 123°09'0 0.0
2015-Jan-26 10:31N 49°01' W 123°09'0 0.0
2015-Jan-26 09:26N 49°01' W 123°09'0 0.0
2015-Jan-26 08:31N 49°01' W 123°09'0 0.0
2015-Jan-26 07:32N 49°01' W 123°09'0 0.0
2015-Jan-26 06:31N 49°01' W 123°09'0 0.0
2015-Jan-26 05:32N 49°01' W 123°09'0 0.0
2015-Jan-26 04:32N 49°01' W 123°09'0 0.0
2015-Jan-26 03:25N 49°01' W 123°09'0 0.0
2015-Jan-26 02:31N 49°01' W 123°09'0 0.0
2015-Jan-26 01:31N 49°01' W 123°09'0 0.0
2015-Jan-26 00:25N 49°01' W 123°09'0 0.0
2015-Jan-25 23:28N 49°01' W 123°09'0 0.0
2015-Jan-25 22:32N 49°01' W 123°09'0 0.0
2015-Jan-25 21:31N 49°01' W 123°09'0 0.0
2015-Jan-25 20:31N 49°01' W 123°09'0 0.0
2015-Jan-25 19:31N 49°01' W 123°09'0 0.0
2015-Jan-25 18:31N 49°01' W 123°09'0 0.0
2015-Jan-25 17:31N 49°01' W 123°09'0 0.0
2015-Jan-25 16:31N 49°01' W 123°09'0 0.0
2015-Jan-25 15:31N 49°01' W 123°09'0 0.0
2015-Jan-25 14:31N 49°01' W 123°09'0 0.0
2015-Jan-25 13:31N 49°01' W 123°09'0 0.0
2015-Jan-25 12:31N 49°01' W 123°09'0 0.0
2015-Jan-25 11:31N 49°01' W 123°09'0 0.0
2015-Jan-25 10:31N 49°01' W 123°09'0 0.0
2015-Jan-25 09:31N 49°01' W 123°09'0 0.0
2015-Jan-25 08:31N 49°01' W 123°09'0 0.0
2015-Jan-25 07:31N 49°01' W 123°09'0 0.0
2015-Jan-25 06:31N 49°01' W 123°09'0 0.0
2015-Jan-25 05:31N 49°01' W 123°09'0 0.0
2015-Jan-25 04:32N 49°01' W 123°09'0 0.0
2015-Jan-25 03:31N 49°01' W 123°09'0 0.0
2015-Jan-25 02:31N 49°01' W 123°09'0 0.0
2015-Jan-25 01:31N 49°01' W 123°09'0 0.0
2015-Jan-25 00:31N 49°01' W 123°09'0 0.0
2015-Jan-24 23:32N 49°01' W 123°09'0 0.0
2015-Jan-24 22:32N 49°01' W 123°09'0 0.0
2015-Jan-24 21:31N 49°01' W 123°09'0 0.0
2015-Jan-24 20:31N 49°01' W 123°09'0 0.0
2015-Jan-24 19:28N 49°01' W 123°09'0 0.0
2015-Jan-24 18:31N 49°01' W 123°09'0 0.0
2015-Jan-24 17:31N 49°01' W 123°09'0 0.0
2015-Jan-24 16:31N 49°01' W 123°09'0 0.0
2015-Jan-24 15:31N 49°01' W 123°09'0 0.0
2015-Jan-24 14:31N 49°01' W 123°09'0 0.0
2015-Jan-24 13:31N 49°01' W 123°09'0 0.0
2015-Jan-24 12:31N 49°01' W 123°09'0 0.0
2015-Jan-24 11:31N 49°01' W 123°09'0 0.0
2015-Jan-24 10:32N 49°01' W 123°09'0 0.0
2015-Jan-24 09:32N 49°01' W 123°09'0 0.0
2015-Jan-24 08:31N 49°01' W 123°09'0 0.0
2015-Jan-24 07:31N 49°01' W 123°09'0 0.0
2015-Jan-24 06:31N 49°01' W 123°09'0 0.0
2015-Jan-24 05:25N 49°01' W 123°09'0 0.0
2015-Jan-24 04:32N 49°01' W 123°09'0 0.0
2015-Jan-24 03:31N 49°01' W 123°09'0 0.0
2015-Jan-24 02:31N 49°01' W 123°09'0 0.0
2015-Jan-24 01:31N 49°01' W 123°09'0 0.0
2015-Jan-24 00:31N 49°01' W 123°09'0 0.0
2015-Jan-23 23:31N 49°01' W 123°09'0 0.0
2015-Jan-23 22:31N 49°01' W 123°09'0 0.0
2015-Jan-23 21:32N 49°01' W 123°09'0 0.0
2015-Jan-23 20:31N 49°01' W 123°09'0 0.0
2015-Jan-23 19:31N 49°01' W 123°09'0 0.0
2015-Jan-23 18:31N 49°01' W 123°09'0 0.0
2015-Jan-23 17:32N 49°01' W 123°09'0 0.0
2015-Jan-23 16:32N 49°01' W 123°09'0 0.0
2015-Jan-23 15:31N 49°01' W 123°09'0 0.0
2015-Jan-23 14:31N 49°01' W 123°09'0 0.0
2015-Jan-23 13:32N 49°01' W 123°09'1 1.4
2015-Jan-23 12:34N 49°00' W 123°11'9 9.3
2015-Jan-23 11:34N 49°04' W 123°24'1312.6
2015-Jan-23 10:34N 49°16' W 123°20'10 9.6
2015-Jan-23 09:33N 49°18' W 123°06'0 0.4
2015-Jan-23 08:31N 49°18' W 123°06'0 0.0
2015-Jan-23 07:31N 49°18' W 123°06'0 0.0
2015-Jan-23 06:31N 49°18' W 123°06'0 0.0
2015-Jan-23 05:31N 49°18' W 123°06'0 0.0
2015-Jan-23 04:31N 49°18' W 123°06'0 0.0
2015-Jan-23 03:31N 49°18' W 123°06'0 0.0
2015-Jan-23 02:32N 49°18' W 123°06'0 0.1
2015-Jan-23 01:31N 49°18' W 123°06'0 0.0
2015-Jan-23 00:31N 49°18' W 123°06'0 0.0
2015-Jan-22 23:31N 49°18' W 123°06'0 0.0
2015-Jan-22 22:31N 49°18' W 123°06'0 0.0
2015-Jan-22 21:31N 49°18' W 123°06'0 0.0
2015-Jan-22 20:31N 49°18' W 123°06'0 0.0
2015-Jan-22 19:31N 49°18' W 123°06'0 0.2
2015-Jan-22 18:31N 49°18' W 123°05'0 0.1
2015-Jan-22 17:31N 49°18' W 123°06'0 0.1
2015-Jan-22 16:31N 49°18' W 123°06'0 0.1
2015-Jan-22 15:31N 49°18' W 123°06'0 0.0
2015-Jan-22 14:31N 49°18' W 123°06'0 0.0
2015-Jan-22 13:31N 49°18' W 123°06'0 0.0
2015-Jan-22 12:31N 49°18' W 123°06'0 0.1
2015-Jan-22 11:31N 49°18' W 123°06'0 0.2
2015-Jan-22 10:32N 49°18' W 123°06'0 0.0
2015-Jan-22 09:31N 49°18' W 123°06'0 0.1
2015-Jan-22 08:31N 49°18' W 123°06'0 0.0
2015-Jan-22 07:31N 49°18' W 123°06'0 0.0
2015-Jan-22 06:31N 49°18' W 123°06'0 0.0
2015-Jan-22 05:31N 49°18' W 123°06'0 0.0
2015-Jan-22 04:31N 49°18' W 123°06'0 0.0
2015-Jan-22 03:31N 49°18' W 123°06'0 0.0
2015-Jan-22 02:31N 49°18' W 123°06'0 0.1
2015-Jan-22 01:31N 49°18' W 123°06'0 0.1
2015-Jan-22 00:31N 49°18' W 123°06'0 0.0
2015-Jan-21 23:31N 49°18' W 123°06'0 0.0
2015-Jan-21 22:49N 49°18' W 123°06'0 0.0
2015-Jan-21 22:43N 49°18' W 123°06'0 0.0
2015-Jan-21 22:31N 49°18' W 123°06'0 0.0
2015-Jan-21 21:31N 49°18' W 123°06'0 0.0
2015-Jan-21 20:31N 49°18' W 123°06'0 0.0
2015-Jan-21 19:31N 49°18' W 123°06'0 0.1
2015-Jan-21 18:31N 49°18' W 123°06'0 0.1
2015-Jan-21 17:31N 49°18' W 123°05'0 0.1
2015-Jan-21 16:31N 49°18' W 123°06'0 0.1
2015-Jan-21 15:31N 49°18' W 123°06'0 0.1
2015-Jan-21 14:31N 49°18' W 123°06'0 0.0
2015-Jan-21 13:31N 49°18' W 123°06'0 0.0
2015-Jan-21 12:31N 49°18' W 123°06'0 0.1
2015-Jan-21 11:31N 49°18' W 123°06'0 0.1
2015-Jan-21 10:31N 49°18' W 123°06'0 0.2
2015-Jan-21 09:31N 49°18' W 123°06'0 0.0
2015-Jan-21 08:31N 49°18' W 123°06'0 0.0
2015-Jan-21 07:31N 49°18' W 123°06'0 0.0
2015-Jan-21 06:31N 49°18' W 123°06'0 0.0
2015-Jan-21 05:31N 49°18' W 123°06'0 0.0
2015-Jan-21 04:31N 49°18' W 123°06'0 0.0
2015-Jan-21 03:31N 49°18' W 123°06'0 0.1
2015-Jan-21 02:31N 49°18' W 123°06'0 0.2
2015-Jan-21 01:31N 49°18' W 123°05'0 0.0
2015-Jan-21 00:31N 49°18' W 123°05'0 0.0
2015-Jan-20 23:31N 49°18' W 123°05'0 0.0
2015-Jan-20 22:31N 49°18' W 123°06'0 0.1
2015-Jan-20 21:31N 49°18' W 123°06'0 0.0
2015-Jan-20 20:31N 49°18' W 123°06'0 0.0
2015-Jan-20 19:31N 49°18' W 123°06'0 0.0
2015-Jan-20 18:31N 49°18' W 123°06'0 0.2
2015-Jan-20 17:31N 49°18' W 123°05'0 0.0
2015-Jan-20 16:31N 49°18' W 123°05'0 0.1
2015-Jan-20 15:31N 49°18' W 123°06'0 0.2
2015-Jan-20 14:31N 49°18' W 123°06'0 0.0
2015-Jan-20 13:31N 49°18' W 123°06'0 0.1
2015-Jan-20 12:31N 49°18' W 123°06'0 0.1
2015-Jan-20 11:31N 49°18' W 123°06'0 0.1
2015-Jan-20 10:31N 49°18' W 123°06'0 0.1
2015-Jan-20 09:31N 49°18' W 123°06'0 0.0
2015-Jan-20 08:31N 49°18' W 123°06'0 0.0
2015-Jan-20 07:31N 49°18' W 123°06'0 0.0
2015-Jan-20 06:31N 49°18' W 123°06'0 0.0
2015-Jan-20 05:31N 49°18' W 123°06'0 0.0
2015-Jan-20 04:31N 49°18' W 123°06'0 0.0
2015-Jan-20 03:29N 49°18' W 123°06'0 0.0
2015-Jan-20 02:27N 49°18' W 123°06'0 0.2
2015-Jan-20 01:22N 49°18' W 123°05'0 0.0
2015-Jan-20 00:31N 49°18' W 123°05'0 0.1
2015-Jan-19 23:31N 49°18' W 123°06'0 0.1
2015-Jan-19 22:31N 49°18' W 123°06'0 0.1
2015-Jan-19 21:31N 49°18' W 123°06'0 0.0
2015-Jan-19 20:31N 49°18' W 123°06'0 0.0
2015-Jan-19 19:31N 49°18' W 123°06'0 0.0
2015-Jan-19 18:32N 49°18' W 123°06'0 0.0
2015-Jan-19 17:31N 49°18' W 123°06'0 0.2
2015-Jan-19 16:31N 49°18' W 123°06'0 0.2
2015-Jan-19 15:31N 49°18' W 123°06'0 0.1
2015-Jan-19 14:31N 49°18' W 123°06'0 0.1
2015-Jan-19 13:31N 49°18' W 123°06'0 0.0
2015-Jan-19 12:31N 49°18' W 123°06'0 0.1
2015-Jan-19 11:31N 49°18' W 123°06'0 0.1
2015-Jan-19 10:31N 49°18' W 123°06'0 0.3
2015-Jan-19 09:31N 49°18' W 123°05'0 0.2
2015-Jan-19 08:31N 49°18' W 123°05'0 0.1
2015-Jan-19 07:31N 49°18' W 123°06'0 0.0
2015-Jan-19 06:31N 49°18' W 123°06'0 0.0
2015-Jan-19 05:31N 49°18' W 123°06'0 0.0
2015-Jan-19 04:31N 49°18' W 123°06'0 0.0
2015-Jan-19 03:31N 49°18' W 123°06'0 0.0
2015-Jan-19 02:31N 49°18' W 123°06'0 0.0
2015-Jan-19 01:31N 49°18' W 123°06'0 0.1
2015-Jan-19 00:31N 49°18' W 123°06'0 0.2
2015-Jan-18 23:31N 49°18' W 123°05'0 0.1
2015-Jan-18 22:31N 49°18' W 123°05'0 0.1
2015-Jan-18 21:31N 49°18' W 123°05'0 0.1
2015-Jan-18 20:31N 49°18' W 123°05'0 0.0
2015-Jan-18 19:31N 49°18' W 123°05'0 0.1
2015-Jan-18 18:31N 49°18' W 123°06'0 0.0
2015-Jan-18 17:31N 49°18' W 123°05'0 0.0
2015-Jan-18 16:31N 49°18' W 123°06'0 0.0
2015-Jan-18 15:31N 49°18' W 123°06'0 0.1
2015-Jan-18 14:31N 49°18' W 123°06'0 0.1
2015-Jan-18 13:31N 49°18' W 123°06'0 0.0
2015-Jan-18 12:31N 49°18' W 123°06'0 0.0
2015-Jan-18 11:31N 49°18' W 123°06'0 0.1
2015-Jan-18 10:31N 49°18' W 123°06'0 0.0
2015-Jan-18 09:31N 49°18' W 123°06'0 0.0
2015-Jan-18 08:31N 49°18' W 123°06'0 0.1
2015-Jan-18 07:31N 49°18' W 123°06'0 0.0
2015-Jan-18 06:31N 49°18' W 123°06'0 0.0
2015-Jan-18 05:31N 49°18' W 123°06'0 0.0
2015-Jan-18 04:31N 49°18' W 123°06'0 0.0
2015-Jan-18 03:31N 49°18' W 123°06'0 0.0
2015-Jan-18 02:25N 49°18' W 123°06'0 0.0
2015-Jan-18 01:31N 49°18' W 123°06'0 0.0
2015-Jan-18 00:31N 49°18' W 123°06'0 0.1
2015-Jan-17 23:31N 49°18' W 123°06'0 0.0
2015-Jan-17 22:31N 49°18' W 123°06'0 0.0
2015-Jan-17 21:31N 49°18' W 123°06'0 0.0
2015-Jan-17 20:31N 49°18' W 123°06'0 0.0
2015-Jan-17 19:31N 49°18' W 123°06'0 0.1
2015-Jan-17 18:31N 49°18' W 123°06'0 0.1
2015-Jan-17 17:31N 49°18' W 123°06'0 0.0
2015-Jan-17 16:31N 49°18' W 123°06'0 0.1
2015-Jan-17 15:31N 49°18' W 123°06'0 0.0
2015-Jan-17 14:31N 49°18' W 123°06'0 0.0
2015-Jan-17 13:31N 49°18' W 123°06'0 0.0
2015-Jan-17 12:31N 49°18' W 123°06'0 0.0
2015-Jan-17 11:31N 49°18' W 123°06'0 0.0
2015-Jan-17 10:31N 49°18' W 123°06'0 0.0
2015-Jan-17 09:31N 49°18' W 123°06'0 0.1
2015-Jan-17 08:31N 49°18' W 123°06'0 0.1
2015-Jan-17 07:31N 49°18' W 123°06'  
Track history (hours):
 
Tides and Currents Weather Stations Pressure Air Temp Water Temp Dewpoint Dewpoint Depression Visibility Wind Speed Wind Dir Waves Ship Positions

Goodwill

Last reported at 2015-Jan-27 06:32 UTC. Time now 2015-Mar-06 09:02 UTC.
Position N 48°33' W 126°15'.
Warning: this ship's position is 38 days out of date.

Length 269 m; draft 16.4 m.

Type: Cargo ship. MMSI: 440541000.

Date/timePositionNaut miles runAvg speedWind from/ knotsBaromVisibWave heightAir tempDewpointWater temp
2015-Jan-27 06:32N 48°33' W 126°15'9 9.1
2015-Jan-27 05:33N 48°32' W 126°01'9 9.4
2015-Jan-27 04:33N 48°32' W 125°47'10 9.8
2015-Jan-27 03:34N 48°32' W 125°32'10 9.6
2015-Jan-27 02:33N 48°32' W 125°18'10 9.9
2015-Jan-27 01:31N 48°31' W 125°02'1010.6
2015-Jan-27 00:33N 48°31' W 124°47'1111.0
2015-Jan-26 23:34N 48°27' W 124°31'1212.1
2015-Jan-26 22:33N 48°22' W 124°14'1212.1
2015-Jan-26 21:33N 48°18' W 123°57'1212.2
2015-Jan-26 20:33N 48°15' W 123°39'1010.2
2015-Jan-26 19:33N 48°21' W 123°26'1010.4
2015-Jan-26 18:34N 48°26' W 123°12'1211.9
2015-Jan-26 17:34N 48°38' W 123°14'8 8.4
2015-Jan-26 16:33N 48°45' W 123°08'8 8.2
2015-Jan-26 15:34N 48°52' W 123°02'10 9.6
2015-Jan-26 14:33N 49°00' W 123°10'1 0.6
2015-Jan-26 13:31N 49°01' W 123°09'0 0.0
2015-Jan-26 12:31N 49°01' W 123°09'0 0.0
2015-Jan-26 11:31N 49°01' W 123°09'0 0.0
2015-Jan-26 10:31N 49°01' W 123°09'0 0.0
2015-Jan-26 09:26N 49°01' W 123°09'0 0.0
2015-Jan-26 08:31N 49°01' W 123°09'0 0.0
2015-Jan-26 07:32N 49°01' W 123°09'0 0.0
2015-Jan-26 06:31N 49°01' W 123°09'0 0.0
2015-Jan-26 05:32N 49°01' W 123°09'0 0.0
2015-Jan-26 04:32N 49°01' W 123°09'0 0.0
2015-Jan-26 03:25N 49°01' W 123°09'0 0.0
2015-Jan-26 02:31N 49°01' W 123°09'0 0.0
2015-Jan-26 01:31N 49°01' W 123°09'0 0.0
2015-Jan-26 00:25N 49°01' W 123°09'0 0.0
2015-Jan-25 23:28N 49°01' W 123°09'0 0.0
2015-Jan-25 22:32N 49°01' W 123°09'0 0.0
2015-Jan-25 21:31N 49°01' W 123°09'0 0.0
2015-Jan-25 20:31N 49°01' W 123°09'0 0.0
2015-Jan-25 19:31N 49°01' W 123°09'0 0.0
2015-Jan-25 18:31N 49°01' W 123°09'0 0.0
2015-Jan-25 17:31N 49°01' W 123°09'0 0.0
2015-Jan-25 16:31N 49°01' W 123°09'0 0.0
2015-Jan-25 15:31N 49°01' W 123°09'0 0.0
2015-Jan-25 14:31N 49°01' W 123°09'0 0.0
2015-Jan-25 13:31N 49°01' W 123°09'0 0.0
2015-Jan-25 12:31N 49°01' W 123°09'0 0.0
2015-Jan-25 11:31N 49°01' W 123°09'0 0.0
2015-Jan-25 10:31N 49°01' W 123°09'0 0.0
2015-Jan-25 09:31N 49°01' W 123°09'0 0.0
2015-Jan-25 08:31N 49°01' W 123°09'0 0.0
2015-Jan-25 07:31N 49°01' W 123°09'0 0.0
2015-Jan-25 06:31N 49°01' W 123°09'0 0.0
2015-Jan-25 05:31N 49°01' W 123°09'0 0.0
2015-Jan-25 04:32N 49°01' W 123°09'0 0.0
2015-Jan-25 03:31N 49°01' W 123°09'0 0.0
2015-Jan-25 02:31N 49°01' W 123°09'0 0.0
2015-Jan-25 01:31N 49°01' W 123°09'0 0.0
2015-Jan-25 00:31N 49°01' W 123°09'0 0.0
2015-Jan-24 23:32N 49°01' W 123°09'0 0.0
2015-Jan-24 22:32N 49°01' W 123°09'0 0.0
2015-Jan-24 21:31N 49°01' W 123°09'0 0.0
2015-Jan-24 20:31N 49°01' W 123°09'0 0.0
2015-Jan-24 19:28N 49°01' W 123°09'0 0.0
2015-Jan-24 18:31N 49°01' W 123°09'0 0.0
2015-Jan-24 17:31N 49°01' W 123°09'0 0.0
2015-Jan-24 16:31N 49°01' W 123°09'0 0.0
2015-Jan-24 15:31N 49°01' W 123°09'0 0.0
2015-Jan-24 14:31N 49°01' W 123°09'0 0.0
2015-Jan-24 13:31N 49°01' W 123°09'0 0.0
2015-Jan-24 12:31N 49°01' W 123°09'0 0.0
2015-Jan-24 11:31N 49°01' W 123°09'0 0.0
2015-Jan-24 10:32N 49°01' W 123°09'0 0.0
2015-Jan-24 09:32N 49°01' W 123°09'0 0.0
2015-Jan-24 08:31N 49°01' W 123°09'0 0.0
2015-Jan-24 07:31N 49°01' W 123°09'0 0.0
2015-Jan-24 06:31N 49°01' W 123°09'0 0.0
2015-Jan-24 05:25N 49°01' W 123°09'0 0.0
2015-Jan-24 04:32N 49°01' W 123°09'0 0.0
2015-Jan-24 03:31N 49°01' W 123°09'0 0.0
2015-Jan-24 02:31N 49°01' W 123°09'0 0.0
2015-Jan-24 01:31N 49°01' W 123°09'0 0.0
2015-Jan-24 00:31N 49°01' W 123°09'0 0.0
2015-Jan-23 23:31N 49°01' W 123°09'0 0.0
2015-Jan-23 22:31N 49°01' W 123°09'0 0.0
2015-Jan-23 21:32N 49°01' W 123°09'0 0.0
2015-Jan-23 20:31N 49°01' W 123°09'0 0.0
2015-Jan-23 19:31N 49°01' W 123°09'0 0.0
2015-Jan-23 18:31N 49°01' W 123°09'0 0.0
2015-Jan-23 17:32N 49°01' W 123°09'0 0.0
2015-Jan-23 16:32N 49°01' W 123°09'0 0.0
2015-Jan-23 15:31N 49°01' W 123°09'0 0.0
2015-Jan-23 14:31N 49°01' W 123°09'0 0.0
2015-Jan-23 13:32N 49°01' W 123°09'1 1.4
2015-Jan-23 12:34N 49°00' W 123°11'9 9.3
2015-Jan-23 11:34N 49°04' W 123°24'1312.6
2015-Jan-23 10:34N 49°16' W 123°20'10 9.6
2015-Jan-23 09:33N 49°18' W 123°06'0 0.4
2015-Jan-23 08:31N 49°18' W 123°06'0 0.0
2015-Jan-23 07:31N 49°18' W 123°06'0 0.0
2015-Jan-23 06:31N 49°18' W 123°06'0 0.0
2015-Jan-23 05:31N 49°18' W 123°06'0 0.0
2015-Jan-23 04:31N 49°18' W 123°06'0 0.0
2015-Jan-23 03:31N 49°18' W 123°06'0 0.0
2015-Jan-23 02:32N 49°18' W 123°06'0 0.1
2015-Jan-23 01:31N 49°18' W 123°06'0 0.0
2015-Jan-23 00:31N 49°18' W 123°06'0 0.0
2015-Jan-22 23:31N 49°18' W 123°06'0 0.0
2015-Jan-22 22:31N 49°18' W 123°06'0 0.0
2015-Jan-22 21:31N 49°18' W 123°06'0 0.0
2015-Jan-22 20:31N 49°18' W 123°06'0 0.0
2015-Jan-22 19:31N 49°18' W 123°06'0 0.2
2015-Jan-22 18:31N 49°18' W 123°05'0 0.1
2015-Jan-22 17:31N 49°18' W 123°06'0 0.1
2015-Jan-22 16:31N 49°18' W 123°06'0 0.1
2015-Jan-22 15:31N 49°18' W 123°06'0 0.0
2015-Jan-22 14:31N 49°18' W 123°06'0 0.0
2015-Jan-22 13:31N 49°18' W 123°06'0 0.0
2015-Jan-22 12:31N 49°18' W 123°06'0 0.1
2015-Jan-22 11:31N 49°18' W 123°06'0 0.2
2015-Jan-22 10:32N 49°18' W 123°06'0 0.0
2015-Jan-22 09:31N 49°18' W 123°06'0 0.1
2015-Jan-22 08:31N 49°18' W 123°06'0 0.0
2015-Jan-22 07:31N 49°18' W 123°06'0 0.0
2015-Jan-22 06:31N 49°18' W 123°06'0 0.0
2015-Jan-22 05:31N 49°18' W 123°06'0 0.0
2015-Jan-22 04:31N 49°18' W 123°06'0 0.0
2015-Jan-22 03:31N 49°18' W 123°06'0 0.0
2015-Jan-22 02:31N 49°18' W 123°06'0 0.1
2015-Jan-22 01:31N 49°18' W 123°06'0 0.1
2015-Jan-22 00:31N 49°18' W 123°06'0 0.0
2015-Jan-21 23:31N 49°18' W 123°06'0 0.0
2015-Jan-21 22:49N 49°18' W 123°06'0 0.0
2015-Jan-21 22:43N 49°18' W 123°06'0 0.0
2015-Jan-21 22:31N 49°18' W 123°06'0 0.0
2015-Jan-21 21:31N 49°18' W 123°06'0 0.0
2015-Jan-21 20:31N 49°18' W 123°06'0 0.0
2015-Jan-21 19:31N 49°18' W 123°06'0 0.1
2015-Jan-21 18:31N 49°18' W 123°06'0 0.1
2015-Jan-21 17:31N 49°18' W 123°05'0 0.1
2015-Jan-21 16:31N 49°18' W 123°06'0 0.1
2015-Jan-21 15:31N 49°18' W 123°06'0 0.1
2015-Jan-21 14:31N 49°18' W 123°06'0 0.0
2015-Jan-21 13:31N 49°18' W 123°06'0 0.0
2015-Jan-21 12:31N 49°18' W 123°06'0 0.1
2015-Jan-21 11:31N 49°18' W 123°06'0 0.1
2015-Jan-21 10:31N 49°18' W 123°06'0 0.2
2015-Jan-21 09:31N 49°18' W 123°06'0 0.0
2015-Jan-21 08:31N 49°18' W 123°06'0 0.0
2015-Jan-21 07:31N 49°18' W 123°06'0 0.0
2015-Jan-21 06:31N 49°18' W 123°06'0 0.0
2015-Jan-21 05:31N 49°18' W 123°06'0 0.0
2015-Jan-21 04:31N 49°18' W 123°06'0 0.0
2015-Jan-21 03:31N 49°18' W 123°06'0 0.1
2015-Jan-21 02:31N 49°18' W 123°06'0 0.2
2015-Jan-21 01:31N 49°18' W 123°05'0 0.0
2015-Jan-21 00:31N 49°18' W 123°05'0 0.0
2015-Jan-20 23:31N 49°18' W 123°05'0 0.0
2015-Jan-20 22:31N 49°18' W 123°06'0 0.1
2015-Jan-20 21:31N 49°18' W 123°06'0 0.0
2015-Jan-20 20:31N 49°18' W 123°06'0 0.0
2015-Jan-20 19:31N 49°18' W 123°06'0 0.0
2015-Jan-20 18:31N 49°18' W 123°06'0 0.2
2015-Jan-20 17:31N 49°18' W 123°05'0 0.0
2015-Jan-20 16:31N 49°18' W 123°05'0 0.1
2015-Jan-20 15:31N 49°18' W 123°06'0 0.2
2015-Jan-20 14:31N 49°18' W 123°06'0 0.0
2015-Jan-20 13:31N 49°18' W 123°06'0 0.1
2015-Jan-20 12:31N 49°18' W 123°06'0 0.1
2015-Jan-20 11:31N 49°18' W 123°06'0 0.1
2015-Jan-20 10:31N 49°18' W 123°06'0 0.1
2015-Jan-20 09:31N 49°18' W 123°06'0 0.0
2015-Jan-20 08:31N 49°18' W 123°06'0 0.0
2015-Jan-20 07:31N 49°18' W 123°06'0 0.0
2015-Jan-20 06:31N 49°18' W 123°06'0 0.0
2015-Jan-20 05:31N 49°18' W 123°06'0 0.0
2015-Jan-20 04:31N 49°18' W 123°06'0 0.0
2015-Jan-20 03:29N 49°18' W 123°06'0 0.0
2015-Jan-20 02:27N 49°18' W 123°06'0 0.2
2015-Jan-20 01:22N 49°18' W 123°05'0 0.0
2015-Jan-20 00:31N 49°18' W 123°05'0 0.1
2015-Jan-19 23:31N 49°18' W 123°06'0 0.1
2015-Jan-19 22:31N 49°18' W 123°06'0 0.1
2015-Jan-19 21:31N 49°18' W 123°06'0 0.0
2015-Jan-19 20:31N 49°18' W 123°06'0 0.0
2015-Jan-19 19:31N 49°18' W 123°06'0 0.0
2015-Jan-19 18:32N 49°18' W 123°06'0 0.0
2015-Jan-19 17:31N 49°18' W 123°06'0 0.2
2015-Jan-19 16:31N 49°18' W 123°06'0 0.2
2015-Jan-19 15:31N 49°18' W 123°06'0 0.1
2015-Jan-19 14:31N 49°18' W 123°06'0 0.1
2015-Jan-19 13:31N 49°18' W 123°06'0 0.0
2015-Jan-19 12:31N 49°18' W 123°06'0 0.1
2015-Jan-19 11:31N 49°18' W 123°06'0 0.1
2015-Jan-19 10:31N 49°18' W 123°06'0 0.3
2015-Jan-19 09:31N 49°18' W 123°05'0 0.2
2015-Jan-19 08:31N 49°18' W 123°05'0 0.1
2015-Jan-19 07:31N 49°18' W 123°06'0 0.0
2015-Jan-19 06:31N 49°18' W 123°06'0 0.0
2015-Jan-19 05:31N 49°18' W 123°06'0 0.0
2015-Jan-19 04:31N 49°18' W 123°06'0 0.0
2015-Jan-19 03:31N 49°18' W 123°06'0 0.0
2015-Jan-19 02:31N 49°18' W 123°06'0 0.0
2015-Jan-19 01:31N 49°18' W 123°06'0 0.1
2015-Jan-19 00:31N 49°18' W 123°06'0 0.2
2015-Jan-18 23:31N 49°18' W 123°05'0 0.1
2015-Jan-18 22:31N 49°18' W 123°05'0 0.1
2015-Jan-18 21:31N 49°18' W 123°05'0 0.1
2015-Jan-18 20:31N 49°18' W 123°05'0 0.0
2015-Jan-18 19:31N 49°18' W 123°05'0 0.1
2015-Jan-18 18:31N 49°18' W 123°06'0 0.0
2015-Jan-18 17:31N 49°18' W 123°05'0 0.0
2015-Jan-18 16:31N 49°18' W 123°06'0 0.0
2015-Jan-18 15:31N 49°18' W 123°06'0 0.1
2015-Jan-18 14:31N 49°18' W 123°06'0 0.1
2015-Jan-18 13:31N 49°18' W 123°06'0 0.0
2015-Jan-18 12:31N 49°18' W 123°06'0 0.0
2015-Jan-18 11:31N 49°18' W 123°06'0 0.1
2015-Jan-18 10:31N 49°18' W 123°06'0 0.0
2015-Jan-18 09:31N 49°18' W 123°06'0 0.0
2015-Jan-18 08:31N 49°18' W 123°06'0 0.1
2015-Jan-18 07:31N 49°18' W 123°06'0 0.0
2015-Jan-18 06:31N 49°18' W 123°06'0 0.0
2015-Jan-18 05:31N 49°18' W 123°06'0 0.0
2015-Jan-18 04:31N 49°18' W 123°06'0 0.0
2015-Jan-18 03:31N 49°18' W 123°06'0 0.0
2015-Jan-18 02:25N 49°18' W 123°06'0 0.0
2015-Jan-18 01:31N 49°18' W 123°06'0 0.0
2015-Jan-18 00:31N 49°18' W 123°06'0 0.1
2015-Jan-17 23:31N 49°18' W 123°06'0 0.0
2015-Jan-17 22:31N 49°18' W 123°06'0 0.0
2015-Jan-17 21:31N 49°18' W 123°06'0 0.0
2015-Jan-17 20:31N 49°18' W 123°06'0 0.0
2015-Jan-17 19:31N 49°18' W 123°06'0 0.1
2015-Jan-17 18:31N 49°18' W 123°06'0 0.1
2015-Jan-17 17:31N 49°18' W 123°06'0 0.0
2015-Jan-17 16:31N 49°18' W 123°06'0 0.1
2015-Jan-17 15:31N 49°18' W 123°06'0 0.0
2015-Jan-17 14:31N 49°18' W 123°06'0 0.0
2015-Jan-17 13:31N 49°18' W 123°06'0 0.0
2015-Jan-17 12:31N 49°18' W 123°06'0 0.0
2015-Jan-17 11:31N 49°18' W 123°06'0 0.0
2015-Jan-17 10:31N 49°18' W 123°06'0 0.0
2015-Jan-17 09:31N 49°18' W 123°06'0 0.1
2015-Jan-17 08:31N 49°18' W 123°06'0 0.1
2015-Jan-17 07:31N 49°18' W 123°06'  

Dump ship's entire track history